createdAt,value
2023-05-14T00:02:27.970Z,6.46
2023-05-14T00:04:55.949Z,6.43
2023-05-14T00:07:24.013Z,6.41
2023-05-14T00:09:51.896Z,6.41
2023-05-14T00:12:20.035Z,6.42
2023-05-14T00:14:47.902Z,6.46
2023-05-14T00:17:15.884Z,6.46
2023-05-14T00:19:44.055Z,6.46
2023-05-14T00:22:12.095Z,6.44
2023-05-14T00:24:40.110Z,6.47
2023-05-14T00:27:08.640Z,6.52
2023-05-14T00:29:36.650Z,6.51
2023-05-14T00:32:04.895Z,6.54
2023-05-14T00:34:32.952Z,6.55
2023-05-14T00:37:01.203Z,6.56
2023-05-14T00:39:29.126Z,6.55
2023-05-14T00:41:56.956Z,6.57
2023-05-14T00:44:25.085Z,6.56
2023-05-14T00:46:53.379Z,6.46
2023-05-14T00:49:21.825Z,6.47
2023-05-14T00:51:50.144Z,6.44
2023-05-14T00:54:18.239Z,6.38
2023-05-14T00:56:46.948Z,6.33
2023-05-14T00:59:14.994Z,6.29
2023-05-14T01:01:43.002Z,6.30
2023-05-14T01:04:11.886Z,6.34
2023-05-14T01:06:39.714Z,6.30
2023-05-14T01:09:18.999Z,6.26
2023-05-14T01:12:00.996Z,6.29
2023-05-14T01:14:47.592Z,6.33
2023-05-14T01:17:16.147Z,6.35
2023-05-14T01:19:45.479Z,6.33
2023-05-14T01:22:13.515Z,6.35
2023-05-14T01:24:41.708Z,6.34
2023-05-14T01:27:18.901Z,6.33
2023-05-14T01:29:53.521Z,6.27
2023-05-14T01:32:24.790Z,6.18
2023-05-14T01:34:53.729Z,5.98
2023-05-14T01:37:22.747Z,5.84
2023-05-14T01:39:52.022Z,5.74
2023-05-14T01:42:20.946Z,5.69
2023-05-14T01:44:48.973Z,5.75
2023-05-14T01:47:17.082Z,5.81
2023-05-14T01:49:45.157Z,5.82
2023-05-14T01:52:13.222Z,5.82
2023-05-14T01:54:41.182Z,5.89
2023-05-14T01:57:09.147Z,5.91
2023-05-14T01:59:37.121Z,5.88
2023-05-14T02:02:05.292Z,5.76
2023-05-14T02:04:33.264Z,5.61
2023-05-14T02:07:01.256Z,5.56
2023-05-14T02:09:30.743Z,5.60
2023-05-14T02:11:59.531Z,5.64
2023-05-14T02:14:27.798Z,5.75
2023-05-14T02:16:56.383Z,5.85
2023-05-14T02:19:24.545Z,5.83
2023-05-14T02:21:52.508Z,5.88
2023-05-14T02:24:21.247Z,5.86
2023-05-14T02:26:49.595Z,5.79
2023-05-14T02:29:17.562Z,5.77
2023-05-14T02:31:45.535Z,5.80
2023-05-14T02:34:13.509Z,5.75
2023-05-14T02:36:41.413Z,5.68
2023-05-14T02:39:09.328Z,5.67
2023-05-14T02:41:37.608Z,5.68
2023-05-14T02:44:05.670Z,5.58
2023-05-14T02:46:33.720Z,5.56
2023-05-14T02:49:03.366Z,5.60
2023-05-14T02:51:31.309Z,5.62
2023-05-14T02:53:59.591Z,5.58
2023-05-14T02:56:27.657Z,5.59
2023-05-14T02:58:55.741Z,5.54
2023-05-14T03:01:24.299Z,5.46
2023-05-14T03:03:52.802Z,5.43
2023-05-14T03:06:20.773Z,5.53
2023-05-14T03:08:48.643Z,5.62
2023-05-14T03:11:16.486Z,5.67
2023-05-14T03:13:44.561Z,5.76
2023-05-14T03:16:13.139Z,5.87
2023-05-14T03:18:41.266Z,5.95
2023-05-14T03:21:10.323Z,6.27
2023-05-14T03:23:38.493Z,6.77
2023-05-14T03:26:06.489Z,7.12
2023-05-14T03:28:34.528Z,7.38
2023-05-14T03:31:03.089Z,7.63
2023-05-14T03:33:31.491Z,7.76
2023-05-14T03:35:59.325Z,7.77
2023-05-14T03:38:27.293Z,7.66
2023-05-14T03:40:55.188Z,7.61
2023-05-14T03:43:23.155Z,7.47
2023-05-14T03:45:52.854Z,7.38
2023-05-14T03:48:21.376Z,7.36
2023-05-14T03:50:49.307Z,7.38
2023-05-14T03:53:17.309Z,7.42
2023-05-14T03:55:46.793Z,7.45
2023-05-14T03:58:14.781Z,7.50
2023-05-14T04:00:43.655Z,7.55
2023-05-14T04:03:12.044Z,7.60
2023-05-14T04:05:40.084Z,7.69
2023-05-14T04:08:07.953Z,7.73
2023-05-14T04:10:36.070Z,7.80
2023-05-14T04:13:03.790Z,7.98
2023-05-14T04:15:35.868Z,8.24
2023-05-14T04:18:04.175Z,8.56
2023-05-14T04:20:32.212Z,8.93
2023-05-14T04:23:00.375Z,9.22
2023-05-14T04:25:28.350Z,9.53
2023-05-14T04:27:56.093Z,9.88
2023-05-14T04:30:24.460Z,10.19
2023-05-14T04:32:52.584Z,10.55
2023-05-14T04:35:24.134Z,10.75
2023-05-14T04:37:52.917Z,10.89
2023-05-14T04:40:20.809Z,11.06
2023-05-14T04:42:48.936Z,11.23
2023-05-14T04:45:17.420Z,11.38
2023-05-14T04:47:46.349Z,11.46
2023-05-14T04:50:14.788Z,11.69
2023-05-14T04:52:42.567Z,11.94
2023-05-14T04:55:10.839Z,12.14
2023-05-14T04:57:38.616Z,12.33
2023-05-14T05:00:07.576Z,12.57
2023-05-14T05:02:36.090Z,12.74
2023-05-14T05:05:04.315Z,12.83
2023-05-14T05:07:32.428Z,12.80
2023-05-14T05:10:00.796Z,12.72
2023-05-14T05:12:30.391Z,12.86
2023-05-14T05:14:58.575Z,13.11
2023-05-14T05:17:26.541Z,13.30
2023-05-14T05:19:54.407Z,13.44
2023-05-14T05:22:22.773Z,13.42
2023-05-14T05:24:50.725Z,13.47
2023-05-14T05:27:18.625Z,13.58
2023-05-14T05:29:46.488Z,13.65
2023-05-14T05:32:14.342Z,13.84
2023-05-14T05:34:42.510Z,13.98
2023-05-14T05:37:12.869Z,14.25
2023-05-14T05:39:41.039Z,14.39
2023-05-14T05:42:09.197Z,14.65
2023-05-14T05:44:37.276Z,14.85
2023-05-14T05:47:06.088Z,14.91
2023-05-14T05:49:34.159Z,15.03
2023-05-14T05:52:02.374Z,15.22
2023-05-14T05:54:32.531Z,15.32
2023-05-14T05:57:00.990Z,15.44
2023-05-14T05:59:28.976Z,15.46
2023-05-14T06:01:57.068Z,15.52
2023-05-14T06:04:24.930Z,15.71
2023-05-14T06:06:52.729Z,15.90
2023-05-14T06:09:21.031Z,16.00
2023-05-14T06:11:48.862Z,16.04
2023-05-14T06:14:16.870Z,16.11
2023-05-14T06:16:44.735Z,16.12
2023-05-14T06:19:12.815Z,15.91
2023-05-14T06:21:40.969Z,15.75
2023-05-14T06:24:09.145Z,15.62
2023-05-14T06:26:37.007Z,15.47
2023-05-14T06:29:04.933Z,15.40
2023-05-14T06:31:32.972Z,15.43
2023-05-14T06:34:01.120Z,15.47
2023-05-14T06:36:29.089Z,15.50
2023-05-14T06:38:57.067Z,15.55
2023-05-14T06:41:25.028Z,15.77
2023-05-14T06:43:52.887Z,16.03
2023-05-14T06:46:21.060Z,16.18
2023-05-14T06:48:49.119Z,16.26
2023-05-14T06:51:17.045Z,16.14
2023-05-14T06:53:45.173Z,16.14
2023-05-14T06:56:14.905Z,16.10
2023-05-14T06:58:42.958Z,15.98
2023-05-14T07:01:10.943Z,16.06
2023-05-14T07:03:39.515Z,16.14
2023-05-14T07:06:07.409Z,16.31
2023-05-14T07:08:36.276Z,16.48
2023-05-14T07:11:04.433Z,16.57
2023-05-14T07:13:32.216Z,16.59
2023-05-14T07:16:00.088Z,16.65
2023-05-14T07:18:28.309Z,16.94
2023-05-14T07:20:56.214Z,17.16
2023-05-14T07:23:24.096Z,17.39
2023-05-14T07:25:52.042Z,17.48
2023-05-14T07:28:19.895Z,17.40
2023-05-14T07:30:47.747Z,17.33
2023-05-14T07:33:15.515Z,17.40
2023-05-14T07:35:43.430Z,17.55
2023-05-14T07:38:11.472Z,17.85
2023-05-14T07:40:39.444Z,18.15
2023-05-14T07:43:07.456Z,18.36
2023-05-14T07:45:36.533Z,18.56
2023-05-14T07:48:04.587Z,18.54
2023-05-14T07:50:32.980Z,18.51
2023-05-14T07:53:01.018Z,18.61
2023-05-14T07:55:28.830Z,18.55
2023-05-14T07:57:56.854Z,18.39
2023-05-14T08:00:25.182Z,18.29
2023-05-14T08:02:53.574Z,18.29
2023-05-14T08:05:21.780Z,18.45
2023-05-14T08:07:49.816Z,18.70
2023-05-14T08:10:17.619Z,18.92
2023-05-14T08:12:45.386Z,19.14
2023-05-14T08:15:13.649Z,19.43
2023-05-14T08:17:41.655Z,19.67
2023-05-14T08:20:12.078Z,19.79
2023-05-14T08:22:40.137Z,19.85
2023-05-14T08:25:08.435Z,19.94
2023-05-14T08:27:37.066Z,20.09
2023-05-14T08:30:06.597Z,20.07
2023-05-14T08:32:34.480Z,19.85
2023-05-14T08:35:02.654Z,19.58
2023-05-14T08:37:30.697Z,19.51
2023-05-14T08:39:58.581Z,19.63
2023-05-14T08:42:27.157Z,19.69
2023-05-14T08:45:05.054Z,19.73
2023-05-14T08:47:33.778Z,19.69
2023-05-14T08:50:02.160Z,19.56
2023-05-14T08:52:30.887Z,19.32
2023-05-14T08:55:05.712Z,19.28
2023-05-14T08:57:34.471Z,19.46
2023-05-14T09:00:08.670Z,19.69
2023-05-14T09:02:36.865Z,19.73
2023-05-14T09:05:05.146Z,19.55
2023-05-14T09:07:33.857Z,19.29
2023-05-14T09:10:02.917Z,19.31
2023-05-14T09:12:31.368Z,19.35
2023-05-14T09:14:59.309Z,19.50
2023-05-14T09:17:28.110Z,19.66
2023-05-14T09:19:56.155Z,19.91
2023-05-14T09:22:24.228Z,20.28
2023-05-14T09:25:04.278Z,20.48
2023-05-14T09:27:32.862Z,20.75
2023-05-14T09:30:07.381Z,20.83
2023-05-14T09:32:36.202Z,20.74
2023-05-14T09:35:24.362Z,20.68
2023-05-14T09:37:53.413Z,20.90
2023-05-14T09:40:23.290Z,21.10
2023-05-14T09:42:52.003Z,21.09
2023-05-14T09:45:19.872Z,21.34
2023-05-14T09:47:48.201Z,21.50
2023-05-14T09:50:16.196Z,21.39
2023-05-14T09:52:44.181Z,21.05
2023-05-14T09:55:12.152Z,20.87
2023-05-14T09:57:40.136Z,20.97
2023-05-14T10:00:09.280Z,21.05
2023-05-14T10:02:38.702Z,21.22
2023-05-14T10:05:07.780Z,21.10
2023-05-14T10:07:38.855Z,20.82
2023-05-14T10:10:08.166Z,20.92
2023-05-14T10:12:38.896Z,21.28
2023-05-14T10:15:14.218Z,21.22
2023-05-14T10:17:45.838Z,21.18
2023-05-14T10:20:15.691Z,20.95
2023-05-14T10:22:43.437Z,20.79
2023-05-14T10:25:11.533Z,20.82
2023-05-14T10:27:40.510Z,20.88
2023-05-14T10:30:12.907Z,20.69
2023-05-14T10:32:42.178Z,20.42
2023-05-14T10:35:22.881Z,20.19
2023-05-14T10:37:51.633Z,20.02
2023-05-14T10:40:19.670Z,19.99
2023-05-14T10:42:48.708Z,19.72
2023-05-14T10:45:16.906Z,19.51
2023-05-14T10:47:46.543Z,19.48
2023-05-14T10:50:15.377Z,19.51
2023-05-14T10:52:44.037Z,19.57
2023-05-14T10:55:16.159Z,19.61
2023-05-14T10:57:45.408Z,19.62
2023-05-14T11:00:14.795Z,19.55
2023-05-14T11:02:44.634Z,19.48
2023-05-14T11:05:17.530Z,19.43
2023-05-14T11:07:47.337Z,19.36
2023-05-14T11:10:19.230Z,19.14
2023-05-14T11:12:48.299Z,19.05
2023-05-14T11:15:17.191Z,19.03
2023-05-14T11:17:46.008Z,18.99
2023-05-14T11:20:15.081Z,19.00
2023-05-14T11:22:43.376Z,18.98
2023-05-14T11:25:14.837Z,18.96
2023-05-14T11:27:43.985Z,18.94
2023-05-14T11:30:16.492Z,18.88
2023-05-14T11:32:48.590Z,18.87
2023-05-14T11:35:17.517Z,18.88
2023-05-14T11:37:52.602Z,18.85
2023-05-14T11:40:20.774Z,18.81
2023-05-14T11:42:51.244Z,18.71
2023-05-14T11:45:30.076Z,18.62
2023-05-14T11:47:58.285Z,18.60
2023-05-14T11:50:26.643Z,18.59
2023-05-14T11:52:58.413Z,18.50
2023-05-14T11:55:26.327Z,18.44
2023-05-14T11:57:54.371Z,18.45
2023-05-14T12:00:24.161Z,18.43
2023-05-14T12:02:52.560Z,18.41
2023-05-14T12:05:20.564Z,18.41
2023-05-14T12:07:48.437Z,18.42
2023-05-14T12:10:16.823Z,18.36
2023-05-14T12:12:48.367Z,18.26
2023-05-14T12:15:20.758Z,18.20
2023-05-14T12:17:52.070Z,18.14
2023-05-14T12:20:20.256Z,18.07
2023-05-14T12:22:48.233Z,18.02
2023-05-14T12:25:16.034Z,17.98
2023-05-14T12:27:45.186Z,17.88
2023-05-14T12:30:21.328Z,17.83
2023-05-14T12:32:52.738Z,17.81
2023-05-14T12:35:21.602Z,17.78
2023-05-14T12:37:49.871Z,17.77
2023-05-14T12:40:17.947Z,17.78
2023-05-14T12:42:45.777Z,17.76
2023-05-14T12:45:13.773Z,17.72
2023-05-14T12:47:41.765Z,17.67
2023-05-14T12:50:09.876Z,17.65
2023-05-14T12:52:39.705Z,17.61
2023-05-14T12:55:09.507Z,17.56
2023-05-14T12:57:39.310Z,17.50
2023-05-14T13:00:08.645Z,17.43
2023-05-14T13:02:42.703Z,17.29
2023-05-14T13:05:12.378Z,17.11
2023-05-14T13:07:40.792Z,16.88
2023-05-14T13:10:09.030Z,16.58
2023-05-14T13:12:37.083Z,16.32
2023-05-14T13:15:05.526Z,16.08
2023-05-14T13:17:33.573Z,15.78
2023-05-14T13:20:01.700Z,15.47
2023-05-14T13:22:29.783Z,15.17
2023-05-14T13:24:57.869Z,14.90
2023-05-14T13:27:26.226Z,14.69
2023-05-14T13:29:54.142Z,14.52
2023-05-14T13:32:22.377Z,14.37
2023-05-14T13:34:50.532Z,14.27
2023-05-14T13:37:18.403Z,14.24
2023-05-14T13:39:46.164Z,14.22
2023-05-14T13:42:14.029Z,14.23
2023-05-14T13:44:42.235Z,14.26
2023-05-14T13:47:10.591Z,14.32
2023-05-14T13:49:38.471Z,14.38
2023-05-14T13:52:06.776Z,14.46
2023-05-14T13:54:34.646Z,14.56
2023-05-14T13:57:02.489Z,14.65
2023-05-14T13:59:30.521Z,14.75
2023-05-14T14:01:58.403Z,14.87
2023-05-14T14:04:29.247Z,14.99
2023-05-14T14:06:57.302Z,15.12
2023-05-14T14:09:25.467Z,15.24
2023-05-14T14:11:53.385Z,15.36
2023-05-14T14:14:21.458Z,15.48
2023-05-14T14:16:49.292Z,15.60
2023-05-14T14:19:18.526Z,15.73
2023-05-14T14:21:46.767Z,15.86
2023-05-14T14:24:15.151Z,15.94
2023-05-14T14:26:42.899Z,15.99
2023-05-14T14:29:10.649Z,15.99
2023-05-14T14:31:38.642Z,15.98
2023-05-14T14:34:06.634Z,15.98
2023-05-14T14:36:37.226Z,15.95
2023-05-14T14:39:05.120Z,15.94
2023-05-14T14:41:32.954Z,15.95
2023-05-14T14:44:02.893Z,15.95
2023-05-14T14:46:30.958Z,15.94
2023-05-14T14:48:58.969Z,15.90
2023-05-14T14:51:27.380Z,15.88
2023-05-14T14:53:55.302Z,15.86
2023-05-14T14:56:23.241Z,15.84
2023-05-14T14:58:51.091Z,15.84
2023-05-14T15:01:19.003Z,15.81
2023-05-14T15:03:48.428Z,15.76
2023-05-14T15:06:16.521Z,15.72
2023-05-14T15:08:44.285Z,15.69
2023-05-14T15:11:12.116Z,15.68
2023-05-14T15:13:41.836Z,15.68
2023-05-14T15:16:09.876Z,15.71
2023-05-14T15:18:37.877Z,15.74
2023-05-14T15:21:05.983Z,15.80
2023-05-14T15:23:33.816Z,15.87
2023-05-14T15:26:02.110Z,15.94
2023-05-14T15:28:29.981Z,15.98
2023-05-14T15:30:58.051Z,16.04
2023-05-14T15:33:26.128Z,16.07
2023-05-14T15:35:53.983Z,16.12
2023-05-14T15:38:21.980Z,16.17
2023-05-14T15:40:50.946Z,16.21
2023-05-14T15:43:18.853Z,16.26
2023-05-14T15:45:46.964Z,16.32
2023-05-14T15:48:14.894Z,16.38
2023-05-14T15:50:43.317Z,16.43
2023-05-14T15:53:11.297Z,16.45
2023-05-14T15:55:39.116Z,16.47
2023-05-14T15:58:07.136Z,16.47
2023-05-14T16:00:35.106Z,16.47
2023-05-14T16:03:03.336Z,16.47
2023-05-14T16:05:31.347Z,16.48
2023-05-14T16:07:59.315Z,16.48
2023-05-14T16:10:27.289Z,16.49
2023-05-14T16:12:55.615Z,16.49
2023-05-14T16:15:23.510Z,16.50
2023-05-14T16:17:51.436Z,16.48
2023-05-14T16:20:19.491Z,16.45
2023-05-14T16:22:47.355Z,16.41
2023-05-14T16:25:15.412Z,16.38
2023-05-14T16:27:43.366Z,16.35
2023-05-14T16:30:11.503Z,16.32
2023-05-14T16:32:41.971Z,16.30
2023-05-14T16:35:10.141Z,16.26
2023-05-14T16:37:37.865Z,16.24
2023-05-14T16:40:06.277Z,16.21
2023-05-14T16:42:34.173Z,16.17
2023-05-14T16:45:02.134Z,16.15
2023-05-14T16:47:29.946Z,16.12
2023-05-14T16:49:58.146Z,16.10
2023-05-14T16:52:26.235Z,16.08
2023-05-14T16:54:54.288Z,16.08
2023-05-14T16:57:22.248Z,16.06
2023-05-14T16:59:50.219Z,16.06
2023-05-14T17:02:18.089Z,16.05
2023-05-14T17:04:46.362Z,16.03
2023-05-14T17:07:14.640Z,16.01
2023-05-14T17:09:42.593Z,15.98
2023-05-14T17:12:11.274Z,15.95
2023-05-14T17:14:39.255Z,15.92
2023-05-14T17:17:07.428Z,15.88
2023-05-14T17:19:35.341Z,15.85
2023-05-14T17:22:06.073Z,15.82
2023-05-14T17:24:35.531Z,15.79
2023-05-14T17:27:03.401Z,15.75
2023-05-14T17:29:31.471Z,15.73
2023-05-14T17:31:59.454Z,15.71
2023-05-14T17:34:27.610Z,15.70
2023-05-14T17:36:55.600Z,15.67
2023-05-14T17:39:23.451Z,15.65
2023-05-14T17:41:51.512Z,15.62
2023-05-14T17:44:19.233Z,15.59
2023-05-14T17:46:47.914Z,15.56
2023-05-14T17:49:15.913Z,15.53
2023-05-14T17:51:43.999Z,15.49
2023-05-14T17:54:11.736Z,15.45
2023-05-14T17:56:39.803Z,15.42
2023-05-14T17:59:07.790Z,15.39
2023-05-14T18:01:35.781Z,15.36
2023-05-14T18:04:03.620Z,15.33
2023-05-14T18:06:31.519Z,15.29
2023-05-14T18:08:59.388Z,15.27
2023-05-14T18:11:32.889Z,15.25
2023-05-14T18:14:00.903Z,15.25
2023-05-14T18:16:28.859Z,15.25
2023-05-14T18:18:56.816Z,15.25
2023-05-14T18:21:24.796Z,15.26
2023-05-14T18:23:52.531Z,15.25
2023-05-14T18:26:22.237Z,15.25
2023-05-14T18:28:50.147Z,15.22
2023-05-14T18:31:18.548Z,15.21
2023-05-14T18:33:46.497Z,15.19
2023-05-14T18:36:14.721Z,15.17
2023-05-14T18:38:42.582Z,15.16
2023-05-14T18:41:10.657Z,15.13
2023-05-14T18:43:38.524Z,15.12
2023-05-14T18:46:06.433Z,15.11
2023-05-14T18:48:35.185Z,15.09
2023-05-14T18:51:03.159Z,15.06
2023-05-14T18:53:31.515Z,15.04
2023-05-14T18:56:02.465Z,15.01
2023-05-14T18:58:30.538Z,14.99
2023-05-14T19:00:59.210Z,14.97
2023-05-14T19:03:27.514Z,14.94
2023-05-14T19:05:55.963Z,14.91
2023-05-14T19:08:24.050Z,14.88
2023-05-14T19:10:53.145Z,14.85
2023-05-14T19:13:21.322Z,14.83
2023-05-14T19:15:49.272Z,14.81
2023-05-14T19:18:17.858Z,14.79
2023-05-14T19:20:46.741Z,14.77
2023-05-14T19:23:15.242Z,14.75
2023-05-14T19:25:43.234Z,14.74
2023-05-14T19:28:11.154Z,14.73
2023-05-14T19:30:39.235Z,14.72
2023-05-14T19:33:07.256Z,14.70
2023-05-14T19:35:35.353Z,14.69
2023-05-14T19:38:03.442Z,14.67
2023-05-14T19:40:31.294Z,14.65
2023-05-14T19:42:59.108Z,14.64
2023-05-14T19:45:27.061Z,14.63
2023-05-14T19:47:55.522Z,14.61
2023-05-14T19:50:23.387Z,14.59
2023-05-14T19:52:51.356Z,14.57
2023-05-14T19:55:19.322Z,14.55
2023-05-14T19:57:47.198Z,14.53
2023-05-14T20:00:15.207Z,14.52
2023-05-14T20:02:43.438Z,14.50
2023-05-14T20:05:11.605Z,14.47
2023-05-14T20:07:40.598Z,14.45
2023-05-14T20:10:09.070Z,14.43
2023-05-14T20:12:36.842Z,14.41
2023-05-14T20:15:05.332Z,14.39
2023-05-14T20:17:33.509Z,14.39
2023-05-14T20:20:01.680Z,14.39
2023-05-14T20:22:29.631Z,14.39
2023-05-14T20:24:57.706Z,14.39
2023-05-14T20:27:25.810Z,14.40
2023-05-14T20:29:54.392Z,14.43
2023-05-14T20:32:25.155Z,14.44
2023-05-14T20:34:53.544Z,14.45
2023-05-14T20:37:21.675Z,14.46
2023-05-14T20:39:49.876Z,14.45
2023-05-14T20:42:17.782Z,14.43
2023-05-14T20:44:48.517Z,14.40
2023-05-14T20:47:20.587Z,14.37
2023-05-14T20:49:48.955Z,14.34
2023-05-14T20:52:17.568Z,14.32
2023-05-14T20:54:46.136Z,14.30
2023-05-14T20:57:15.965Z,14.28
2023-05-14T20:59:43.896Z,14.27
2023-05-14T21:02:12.194Z,14.25
2023-05-14T21:04:40.504Z,14.24
2023-05-14T21:07:08.628Z,14.25
2023-05-14T21:09:36.490Z,14.25
2023-05-14T21:12:04.631Z,14.24
2023-05-14T21:14:32.656Z,14.23
2023-05-14T21:17:00.496Z,14.22
2023-05-14T21:19:28.228Z,14.22
2023-05-14T21:21:56.228Z,14.20
2023-05-14T21:24:24.094Z,14.18
2023-05-14T21:26:53.498Z,14.16
2023-05-14T21:29:21.564Z,14.14
2023-05-14T21:31:50.403Z,14.11
2023-05-14T21:34:18.316Z,14.09
2023-05-14T21:36:46.732Z,14.07
2023-05-14T21:39:14.778Z,14.04
2023-05-14T21:41:42.560Z,14.03
2023-05-14T21:44:10.705Z,14.02
2023-05-14T21:46:38.693Z,14.00
2023-05-14T21:49:06.564Z,13.99
2023-05-14T21:51:34.525Z,13.97
2023-05-14T21:54:02.273Z,13.96
2023-05-14T21:56:30.256Z,13.93
2023-05-14T21:58:58.321Z,13.92
2023-05-14T22:01:26.399Z,13.91
2023-05-14T22:03:55.749Z,13.88
2023-05-14T22:06:25.807Z,13.87
2023-05-14T22:08:53.768Z,13.85
2023-05-14T22:11:21.944Z,13.82
2023-05-14T22:13:49.809Z,13.80
2023-05-14T22:16:17.702Z,13.77
2023-05-14T22:18:45.713Z,13.76
2023-05-14T22:21:13.748Z,13.74
2023-05-14T22:23:41.817Z,13.73
2023-05-14T22:26:09.975Z,13.73
2023-05-14T22:28:42.875Z,13.73
2023-05-14T22:31:11.298Z,13.74
2023-05-14T22:33:39.406Z,13.75
2023-05-14T22:36:07.563Z,13.75
2023-05-14T22:38:35.572Z,13.75
2023-05-14T22:41:03.400Z,13.75
2023-05-14T22:43:31.265Z,13.75
2023-05-14T22:45:59.347Z,13.74
2023-05-14T22:48:27.300Z,13.73
2023-05-14T22:50:55.152Z,13.72
2023-05-14T22:53:24.388Z,13.71
2023-05-14T22:55:53.057Z,13.70
2023-05-14T22:58:21.028Z,13.69
2023-05-14T23:00:49.098Z,13.69
2023-05-14T23:03:17.165Z,13.67
2023-05-14T23:05:45.335Z,13.67
2023-05-14T23:08:13.403Z,13.66
2023-05-14T23:10:41.210Z,13.65
2023-05-14T23:13:09.018Z,13.64
2023-05-14T23:15:37.314Z,13.63
2023-05-14T23:18:05.389Z,13.61
2023-05-14T23:20:33.344Z,13.60
2023-05-14T23:23:01.138Z,13.58
2023-05-14T23:25:29.059Z,13.55
2023-05-14T23:27:57.075Z,13.52
2023-05-14T23:30:24.932Z,13.49
2023-05-14T23:32:52.843Z,13.47
2023-05-14T23:35:20.854Z,13.44
2023-05-14T23:37:50.994Z,13.41
2023-05-14T23:40:18.843Z,13.41
2023-05-14T23:42:46.610Z,13.38
2023-05-14T23:45:14.580Z,13.31
2023-05-14T23:47:42.787Z,13.23
2023-05-14T23:50:10.915Z,13.16
2023-05-14T23:52:38.795Z,13.11
2023-05-14T23:55:07.163Z,13.07
2023-05-14T23:57:35.642Z,13.03
